Rechercher aéroport 
image banner adimage banner adimage banner ad
image banner ad

12CN - Richter

Situé à Maxwell, United States

ICAO - 12CN, IATA -

Données fournies par Airmate  

Information générale

Coordonnées: N39°16'6" W122°7'0"
Élévation : 57 feet MSL.
 
Voir autres Aéroports à California

Données opérationnelles

Special qualification required
Heure actuelle UTC:
Heure actuelle locale:
Météo à : KOVE - Oroville Muni ( 49 km )
METAR: KOVE 262153Z AUTO 17011KT 10SM CLR 29/11 A2984 RMK AO2 SLP104 T02940106
Voir NOTAMs / SUP AIP / TFR affectant cet aéroport [VIEW]
Fréquences de communication: [VIEW]

Pistes:

Identifiant RWYQFULongueur (ft)Largeur (ft)SurfaceLDA (ft)
16285640ASPH
34285640ASPH

Coordonnées de l'aéroport

Adresse: Maxwell United States

Vue satellite de 12CN